Asbest, Russia
Current Conditions -  °F | °C
As of 9:00 AM on Monday 24 Nov 2014 (Local Time) from USSS Reporting Station
Clear Clear  
Wind Chill: -24°   Ceiling: Unl
Heat Index: -4°   Visibility: 6mi
Dew Point: -9°   Wind: 13mph
Humidity: 78%   Direction: 280°W
Pressure: 30.45"   Gusts: NA
Location:  57.02°N, 61.46°E
Report Text: USSS 240400Z 28006MPS CAVOK M20/M23 Q1031 76810350 NOSIG RMKQFE753
Loading
Personal Weather Stations






























Interactive Weather Map New forecast layout! Learn more

10-Day Weather Forecast

Advertisements
Track Severe Weather on mobile